sensor_id;sensor_type;location;lat;lon;timestamp;pressure;altitude;pressure_sealevel;temperature;humidity
7335;BME280;3708;42.632;23.378;2023-07-28T00:01:00;94421.91;;;20.16;39.85
7335;BME280;3708;42.632;23.378;2023-07-28T00:03:27;94418.88;;;20.21;39.86
7335;BME280;3708;42.632;23.378;2023-07-28T00:05:53;94420.84;;;20.31;39.92
7335;BME280;3708;42.632;23.378;2023-07-28T00:08:20;94413.63;;;20.35;39.62
7335;BME280;3708;42.632;23.378;2023-07-28T00:10:47;94416.66;;;20.37;39.62
7335;BME280;3708;42.632;23.378;2023-07-28T00:13:15;94413.63;;;20.39;39.48
7335;BME280;3708;42.632;23.378;2023-07-28T00:15:42;94421.59;;;20.39;39.23
7335;BME280;3708;42.632;23.378;2023-07-28T00:18:09;94421.22;;;20.33;39.41
7335;BME280;3708;42.632;23.378;2023-07-28T00:20:36;94420.44;;;20.26;39.59
7335;BME280;3708;42.632;23.378;2023-07-28T00:23:03;94409.78;;;20.26;39.35
7335;BME280;3708;42.632;23.378;2023-07-28T00:25:29;94414.72;;;20.24;39.29
7335;BME280;3708;42.632;23.378;2023-07-28T00:27:56;94410.50;;;20.19;39.14
7335;BME280;3708;42.632;23.378;2023-07-28T00:30:24;94411.25;;;20.20;39.29
7335;BME280;3708;42.632;23.378;2023-07-28T00:32:52;94411.16;;;19.95;39.11
7335;BME280;3708;42.632;23.378;2023-07-28T00:35:18;94413.81;;;19.95;39.04
7335;BME280;3708;42.632;23.378;2023-07-28T00:37:45;94408.47;;;19.88;38.88
7335;BME280;3708;42.632;23.378;2023-07-28T00:40:12;94407.56;;;19.59;39.30
7335;BME280;3708;42.632;23.378;2023-07-28T00:42:39;94417.59;;;19.33;39.44
7335;BME280;3708;42.632;23.378;2023-07-28T00:45:07;94415.75;;;19.37;39.76
7335;BME280;3708;42.632;23.378;2023-07-28T00:47:35;94418.34;;;19.30;39.79
7335;BME280;3708;42.632;23.378;2023-07-28T00:50:04;94421.00;;;19.30;40.11
7335;BME280;3708;42.632;23.378;2023-07-28T00:52:31;94424.38;;;19.27;40.08
7335;BME280;3708;42.632;23.378;2023-07-28T00:54:58;94422.81;;;19.19;40.64
7335;BME280;3708;42.632;23.378;2023-07-28T00:57:25;94418.28;;;19.19;40.73
7335;BME280;3708;42.632;23.378;2023-07-28T00:59:52;94416.97;;;19.02;40.96
7335;BME280;3708;42.632;23.378;2023-07-28T01:02:19;94418.06;;;18.94;40.78
7335;BME280;3708;42.632;23.378;2023-07-28T01:04:48;94415.78;;;18.96;40.53
7335;BME280;3708;42.632;23.378;2023-07-28T01:07:20;94427.13;;;18.93;40.42
7335;BME280;3708;42.632;23.378;2023-07-28T01:09:52;94425.84;;;18.73;40.46
7335;BME280;3708;42.632;23.378;2023-07-28T01:12:24;94423.09;;;18.66;41.03
7335;BME280;3708;42.632;23.378;2023-07-28T01:14:51;94422.34;;;18.66;41.31
7335;BME280;3708;42.632;23.378;2023-07-28T01:17:18;94412.81;;;18.61;41.59
7335;BME280;3708;42.632;23.378;2023-07-28T01:19:45;94416.28;;;18.65;41.54
7335;BME280;3708;42.632;23.378;2023-07-28T01:22:45;94421.63;;;18.69;41.68
7335;BME280;3708;42.632;23.378;2023-07-28T01:25:18;94419.78;;;18.76;41.60
7335;BME280;3708;42.632;23.378;2023-07-28T01:27:50;94411.88;;;18.83;41.66
7335;BME280;3708;42.632;23.378;2023-07-28T01:30:18;94418.72;;;18.84;41.57
7335;BME280;3708;42.632;23.378;2023-07-28T01:32:47;94415.84;;;18.63;42.03
7335;BME280;3708;42.632;23.378;2023-07-28T01:35:14;94412.38;;;18.52;42.38
7335;BME280;3708;42.632;23.378;2023-07-28T01:37:41;94419.81;;;18.43;42.79
7335;BME280;3708;42.632;23.378;2023-07-28T01:40:08;94411.38;;;18.34;42.97
7335;BME280;3708;42.632;23.378;2023-07-28T01:42:35;94410.91;;;17.92;44.32
7335;BME280;3708;42.632;23.378;2023-07-28T01:45:04;94411.06;;;17.76;44.67
7335;BME280;3708;42.632;23.378;2023-07-28T01:47:31;94407.25;;;17.74;44.91
7335;BME280;3708;42.632;23.378;2023-07-28T01:49:58;94412.94;;;17.76;44.86
7335;BME280;3708;42.632;23.378;2023-07-28T01:52:25;94404.72;;;17.84;44.92
7335;BME280;3708;42.632;23.378;2023-07-28T01:54:51;94407.09;;;17.93;44.69
7335;BME280;3708;42.632;23.378;2023-07-28T01:57:18;94413.88;;;17.90;44.74
7335;BME280;3708;42.632;23.378;2023-07-28T01:59:45;94416.19;;;17.92;44.62
7335;BME280;3708;42.632;23.378;2023-07-28T02:02:13;94413.81;;;17.83;44.60
7335;BME280;3708;42.632;23.378;2023-07-28T02:04:40;94418.25;;;17.76;44.57
7335;BME280;3708;42.632;23.378;2023-07-28T02:07:07;94419.78;;;17.77;44.49
7335;BME280;3708;42.632;23.378;2023-07-28T02:09:34;94407.75;;;17.83;44.50
7335;BME280;3708;42.632;23.378;2023-07-28T02:12:01;94413.06;;;17.83;44.41
7335;BME280;3708;42.632;23.378;2023-07-28T02:14:27;94412.31;;;17.86;44.29
7335;BME280;3708;42.632;23.378;2023-07-28T02:16:54;94415.34;;;17.84;44.19
7335;BME280;3708;42.632;23.378;2023-07-28T02:19:24;94418.38;;;17.86;44.09
7335;BME280;3708;42.632;23.378;2023-07-28T02:21:50;94417.69;;;17.89;44.19
7335;BME280;3708;42.632;23.378;2023-07-28T02:24:17;94422.31;;;17.96;44.06
7335;BME280;3708;42.632;23.378;2023-07-28T02:26:44;94419.66;;;17.96;44.11
7335;BME280;3708;42.632;23.378;2023-07-28T02:29:11;94424.44;;;17.87;43.76
7335;BME280;3708;42.632;23.378;2023-07-28T02:31:38;94428.97;;;17.86;43.75
7335;BME280;3708;42.632;23.378;2023-07-28T02:34:04;94418.72;;;17.81;43.74
7335;BME280;3708;42.632;23.378;2023-07-28T02:36:32;94417.63;;;17.86;43.77
7335;BME280;3708;42.632;23.378;2023-07-28T02:38:59;94419.66;;;17.96;43.93
7335;BME280;3708;42.632;23.378;2023-07-28T02:41:26;94416.25;;;17.99;43.68
7335;BME280;3708;42.632;23.378;2023-07-28T02:43:53;94421.66;;;18.06;43.92
7335;BME280;3708;42.632;23.378;2023-07-28T02:46:20;94418.72;;;18.14;43.88
7335;BME280;3708;42.632;23.378;2023-07-28T02:48:46;94421.84;;;18.20;43.42
7335;BME280;3708;42.632;23.378;2023-07-28T02:51:13;94432.56;;;18.01;43.02
7335;BME280;3708;42.632;23.378;2023-07-28T02:53:41;94424.94;;;17.96;42.99
7335;BME280;3708;42.632;23.378;2023-07-28T02:56:08;94430.81;;;17.82;42.77
7335;BME280;3708;42.632;23.378;2023-07-28T02:58:35;94430.41;;;17.80;43.04
7335;BME280;3708;42.632;23.378;2023-07-28T03:01:02;94420.25;;;17.86;43.17
7335;BME280;3708;42.632;23.378;2023-07-28T03:03:29;94416.06;;;17.81;42.80
7335;BME280;3708;42.632;23.378;2023-07-28T03:05:56;94411.47;;;17.78;42.91
7335;BME280;3708;42.632;23.378;2023-07-28T03:08:23;94421.81;;;17.87;42.69
7335;BME280;3708;42.632;23.378;2023-07-28T03:10:56;94427.91;;;17.61;42.72
7335;BME280;3708;42.632;23.378;2023-07-28T03:13:23;94421.78;;;17.57;42.99
7335;BME280;3708;42.632;23.378;2023-07-28T03:15:49;94424.88;;;17.63;42.84
7335;BME280;3708;42.632;23.378;2023-07-28T03:18:16;94428.03;;;17.72;42.96
7335;BME280;3708;42.632;23.378;2023-07-28T03:20:43;94428.66;;;17.62;42.57
7335;BME280;3708;42.632;23.378;2023-07-28T03:23:10;94418.34;;;17.83;42.84
7335;BME280;3708;42.632;23.378;2023-07-28T03:25:36;94425.38;;;18.01;42.48
7335;BME280;3708;42.632;23.378;2023-07-28T03:28:05;94432.78;;;18.18;41.98
7335;BME280;3708;42.632;23.378;2023-07-28T03:30:31;94442.69;;;18.21;41.49
7335;BME280;3708;42.632;23.378;2023-07-28T03:32:58;94438.94;;;18.26;41.30
7335;BME280;3708;42.632;23.378;2023-07-28T03:35:25;94437.91;;;18.34;41.28
7335;BME280;3708;42.632;23.378;2023-07-28T03:37:52;94432.72;;;18.45;41.43
7335;BME280;3708;42.632;23.378;2023-07-28T03:40:19;94439.69;;;18.56;41.41
7335;BME280;3708;42.632;23.378;2023-07-28T03:42:46;94442.81;;;18.65;41.49
7335;BME280;3708;42.632;23.378;2023-07-28T03:45:16;94442.91;;;18.76;41.42
7335;BME280;3708;42.632;23.378;2023-07-28T03:47:43;94445.22;;;18.81;41.26
7335;BME280;3708;42.632;23.378;2023-07-28T03:50:10;94449.50;;;18.92;41.63
7335;BME280;3708;42.632;23.378;2023-07-28T03:52:36;94451.50;;;19.02;41.94
7335;BME280;3708;42.632;23.378;2023-07-28T03:55:04;94441.66;;;19.07;42.22
7335;BME280;3708;42.632;23.378;2023-07-28T03:57:30;94446.25;;;19.13;41.90
7335;BME280;3708;42.632;23.378;2023-07-28T03:59:57;94441.72;;;19.14;42.39
7335;BME280;3708;42.632;23.378;2023-07-28T04:02:25;94447.81;;;19.18;42.87
7335;BME280;3708;42.632;23.378;2023-07-28T04:04:53;94441.47;;;19.26;42.62
7335;BME280;3708;42.632;23.378;2023-07-28T04:07:21;94450.94;;;19.30;42.98
7335;BME280;3708;42.632;23.378;2023-07-28T04:09:48;94448.00;;;19.39;42.58
7335;BME280;3708;42.632;23.378;2023-07-28T04:12:15;94453.03;;;19.51;42.53
7335;BME280;3708;42.632;23.378;2023-07-28T04:14:41;94461.84;;;19.15;42.96
7335;BME280;3708;42.632;23.378;2023-07-28T04:17:08;94460.16;;;19.40;42.90
7335;BME280;3708;42.632;23.378;2023-07-28T04:19:38;94450.75;;;19.49;42.77
7335;BME280;3708;42.632;23.378;2023-07-28T04:22:05;94447.69;;;19.47;42.91
7335;BME280;3708;42.632;23.378;2023-07-28T04:24:32;94455.38;;;19.59;42.68
7335;BME280;3708;42.632;23.378;2023-07-28T04:26:59;94452.41;;;19.71;42.36
7335;BME280;3708;42.632;23.378;2023-07-28T04:29:26;94454.00;;;19.83;42.21
7335;BME280;3708;42.632;23.378;2023-07-28T04:31:53;94456.69;;;19.87;41.98
7335;BME280;3708;42.632;23.378;2023-07-28T04:34:20;94455.56;;;19.88;42.21
7335;BME280;3708;42.632;23.378;2023-07-28T04:36:49;94454.50;;;20.06;42.03
7335;BME280;3708;42.632;23.378;2023-07-28T04:39:15;94453.47;;;20.21;41.46
7335;BME280;3708;42.632;23.378;2023-07-28T04:41:42;94454.22;;;20.25;41.31
7335;BME280;3708;42.632;23.378;2023-07-28T04:44:09;94445.91;;;20.30;41.35
7335;BME280;3708;42.632;23.378;2023-07-28T04:46:36;94441.34;;;20.34;41.08
7335;BME280;3708;42.632;23.378;2023-07-28T04:49:03;94450.91;;;20.46;41.06
7335;BME280;3708;42.632;23.378;2023-07-28T04:51:29;94458.50;;;20.44;41.12
7335;BME280;3708;42.632;23.378;2023-07-28T04:53:58;94453.56;;;20.53;41.09
7335;BME280;3708;42.632;23.378;2023-07-28T04:56:24;94454.75;;;20.77;40.83
7335;BME280;3708;42.632;23.378;2023-07-28T04:58:51;94449.81;;;20.68;40.99
7335;BME280;3708;42.632;23.378;2023-07-28T05:01:18;94448.34;;;20.85;40.73
7335;BME280;3708;42.632;23.378;2023-07-28T05:06:44;94441.88;;;20.93;40.42
7335;BME280;3708;42.632;23.378;2023-07-28T05:09:12;94444.19;;;21.05;40.49
7335;BME280;3708;42.632;23.378;2023-07-28T05:11:39;94453.34;;;21.25;40.09
7335;BME280;3708;42.632;23.378;2023-07-28T05:14:06;94456.41;;;21.31;40.03
7335;BME280;3708;42.632;23.378;2023-07-28T05:16:34;94451.81;;;21.42;39.77
7335;BME280;3708;42.632;23.378;2023-07-28T05:19:01;94450.69;;;21.32;39.92
7335;BME280;3708;42.632;23.378;2023-07-28T05:21:27;94456.03;;;21.39;39.77
7335;BME280;3708;42.632;23.378;2023-07-28T05:23:54;94449.94;;;21.46;40.03
7335;BME280;3708;42.632;23.378;2023-07-28T05:26:22;94449.13;;;21.59;39.40
7335;BME280;3708;42.632;23.378;2023-07-28T05:28:49;94457.91;;;21.21;39.47
7335;BME280;3708;42.632;23.378;2023-07-28T05:31:16;94456.25;;;20.60;40.05
7335;BME280;3708;42.632;23.378;2023-07-28T05:33:43;94454.03;;;20.87;39.92
7335;BME280;3708;42.632;23.378;2023-07-28T05:36:10;94453.31;;;21.00;39.52
7335;BME280;3708;42.632;23.378;2023-07-28T05:38:37;94453.28;;;20.86;39.36
7335;BME280;3708;42.632;23.378;2023-07-28T05:41:04;94451.81;;;21.06;39.36
7335;BME280;3708;42.632;23.378;2023-07-28T05:43:32;94452.50;;;20.75;39.63
7335;BME280;3708;42.632;23.378;2023-07-28T05:45:59;94457.16;;;21.17;39.26
7335;BME280;3708;42.632;23.378;2023-07-28T05:48:27;94451.44;;;21.29;38.99
7335;BME280;3708;42.632;23.378;2023-07-28T05:50:53;94448.41;;;21.34;38.65
7335;BME280;3708;42.632;23.378;2023-07-28T05:53:21;94442.69;;;21.14;39.16
7335;BME280;3708;42.632;23.378;2023-07-28T05:55:47;94443.44;;;21.15;39.04
7335;BME280;3708;42.632;23.378;2023-07-28T05:58:14;94437.69;;;20.99;39.66
7335;BME280;3708;42.632;23.378;2023-07-28T06:00:43;94436.22;;;21.26;39.46
7335;BME280;3708;42.632;23.378;2023-07-28T06:03:18;94433.19;;;21.35;39.27
7335;BME280;3708;42.632;23.378;2023-07-28T06:05:48;94434.28;;;21.02;39.31
7335;BME280;3708;42.632;23.378;2023-07-28T06:08:16;94442.69;;;21.21;38.92
7335;BME280;3708;42.632;23.378;2023-07-28T06:10:43;94432.03;;;21.25;39.16
7335;BME280;3708;42.632;23.378;2023-07-28T06:13:09;94429.00;;;21.23;39.56
7335;BME280;3708;42.632;23.378;2023-07-28T06:15:38;94432.00;;;21.46;39.20
7335;BME280;3708;42.632;23.378;2023-07-28T06:18:07;94431.22;;;21.63;39.03
7335;BME280;3708;42.632;23.378;2023-07-28T06:20:34;94423.63;;;21.86;38.84
7335;BME280;3708;42.632;23.378;2023-07-28T06:23:01;94435.38;;;21.99;38.64
7335;BME280;3708;42.632;23.378;2023-07-28T06:25:28;94429.59;;;22.19;38.35
7335;BME280;3708;42.632;23.378;2023-07-28T06:27:55;94416.97;;;22.26;38.52
7335;BME280;3708;42.632;23.378;2023-07-28T06:30:22;94420.38;;;22.30;39.02
7335;BME280;3708;42.632;23.378;2023-07-28T06:32:49;94416.78;;;21.64;39.87
7335;BME280;3708;42.632;23.378;2023-07-28T06:35:17;94420.91;;;21.93;39.34
7335;BME280;3708;42.632;23.378;2023-07-28T06:37:44;94422.88;;;21.44;40.08
7335;BME280;3708;42.632;23.378;2023-07-28T06:40:11;94420.59;;;21.56;40.32
7335;BME280;3708;42.632;23.378;2023-07-28T06:42:38;94416.34;;;21.87;39.76
7335;BME280;3708;42.632;23.378;2023-07-28T06:45:06;94409.75;;;22.27;39.13
7335;BME280;3708;42.632;23.378;2023-07-28T06:47:32;94422.16;;;22.58;38.76
7335;BME280;3708;42.632;23.378;2023-07-28T06:49:59;94425.25;;;22.53;38.76
7335;BME280;3708;42.632;23.378;2023-07-28T06:52:28;94418.84;;;22.40;38.08
7335;BME280;3708;42.632;23.378;2023-07-28T06:54:56;94424.25;;;22.15;37.97
7335;BME280;3708;42.632;23.378;2023-07-28T06:57:23;94422.63;;;22.39;37.83
7335;BME280;3708;42.632;23.378;2023-07-28T06:59:50;94421.75;;;22.70;37.66
7335;BME280;3708;42.632;23.378;2023-07-28T07:02:22;94427.69;;;22.95;37.42
7335;BME280;3708;42.632;23.378;2023-07-28T07:04:52;94418.13;;;22.29;37.83
7335;BME280;3708;42.632;23.378;2023-07-28T07:07:19;94421.78;;;22.66;37.35
7335;BME280;3708;42.632;23.378;2023-07-28T07:09:47;94430.09;;;22.79;37.33
7335;BME280;3708;42.632;23.378;2023-07-28T07:12:14;94423.59;;;22.80;37.15
7335;BME280;3708;42.632;23.378;2023-07-28T07:14:41;94427.25;;;23.07;36.92
7335;BME280;3708;42.632;23.378;2023-07-28T07:17:08;94428.66;;;23.22;36.27
7335;BME280;3708;42.632;23.378;2023-07-28T07:19:34;94425.22;;;23.70;36.10
7335;BME280;3708;42.632;23.378;2023-07-28T07:22:01;94416.91;;;23.94;35.71
7335;BME280;3708;42.632;23.378;2023-07-28T07:24:28;94421.50;;;23.94;35.52
7335;BME280;3708;42.632;23.378;2023-07-28T07:26:57;94424.34;;;24.17;35.01
7335;BME280;3708;42.632;23.378;2023-07-28T07:29:23;94430.38;;;23.46;35.87
7335;BME280;3708;42.632;23.378;2023-07-28T07:31:50;94418.94;;;23.42;36.35
7335;BME280;3708;42.632;23.378;2023-07-28T07:34:21;94430.91;;;23.72;35.88
7335;BME280;3708;42.632;23.378;2023-07-28T07:36:48;94425.72;;;23.95;35.59
7335;BME280;3708;42.632;23.378;2023-07-28T07:39:15;94428.25;;;24.09;35.26
7335;BME280;3708;42.632;23.378;2023-07-28T07:41:42;94442.22;;;23.86;35.50
7335;BME280;3708;42.632;23.378;2023-07-28T07:44:10;94433.38;;;24.30;34.71
7335;BME280;3708;42.632;23.378;2023-07-28T07:46:37;94430.56;;;24.71;34.76
7335;BME280;3708;42.632;23.378;2023-07-28T07:49:04;94430.19;;;24.99;34.21
7335;BME280;3708;42.632;23.378;2023-07-28T07:51:31;94435.09;;;24.77;33.51
7335;BME280;3708;42.632;23.378;2023-07-28T07:53:59;94442.06;;;24.68;34.06
7335;BME280;3708;42.632;23.378;2023-07-28T07:56:26;94438.53;;;25.05;33.54
7335;BME280;3708;42.632;23.378;2023-07-28T07:58:53;94437.91;;;25.47;32.88
7335;BME280;3708;42.632;23.378;2023-07-28T08:01:21;94437.53;;;25.45;32.79
7335;BME280;3708;42.632;23.378;2023-07-28T08:03:48;94444.66;;;25.78;32.68
7335;BME280;3708;42.632;23.378;2023-07-28T08:06:15;94446.75;;;25.67;32.04
7335;BME280;3708;42.632;23.378;2023-07-28T08:08:42;94437.72;;;26.00;31.53
7335;BME280;3708;42.632;23.378;2023-07-28T08:11:11;94433.13;;;26.20;31.87
7335;BME280;3708;42.632;23.378;2023-07-28T08:13:38;94439.91;;;26.09;32.52
7335;BME280;3708;42.632;23.378;2023-07-28T08:16:05;94435.13;;;26.16;32.17
7335;BME280;3708;42.632;23.378;2023-07-28T08:18:33;94429.44;;;26.34;31.79
7335;BME280;3708;42.632;23.378;2023-07-28T08:21:00;94442.84;;;25.22;33.10
7335;BME280;3708;42.632;23.378;2023-07-28T08:23:26;94441.72;;;25.69;32.02
7335;BME280;3708;42.632;23.378;2023-07-28T08:25:53;94432.38;;;26.00;31.20
7335;BME280;3708;42.632;23.378;2023-07-28T08:28:20;94427.22;;;26.29;31.06
7335;BME280;3708;42.632;23.378;2023-07-28T08:30:54;94435.66;;;26.67;31.15
7335;BME280;3708;42.632;23.378;2023-07-28T08:33:22;94427.69;;;26.63;31.29
7335;BME280;3708;42.632;23.378;2023-07-28T08:35:50;94434.16;;;27.01;30.65
7335;BME280;3708;42.632;23.378;2023-07-28T08:38:17;94437.44;;;27.09;30.73
7335;BME280;3708;42.632;23.378;2023-07-28T08:40:44;94430.00;;;27.49;30.03
7335;BME280;3708;42.632;23.378;2023-07-28T08:43:11;94424.38;;;27.59;29.89
7335;BME280;3708;42.632;23.378;2023-07-28T08:45:40;94425.69;;;27.03;30.54
7335;BME280;3708;42.632;23.378;2023-07-28T08:48:06;94427.03;;;26.95;30.12
7335;BME280;3708;42.632;23.378;2023-07-28T08:50:33;94427.53;;;27.06;30.02
7335;BME280;3708;42.632;23.378;2023-07-28T08:53:02;94418.34;;;26.87;30.65
7335;BME280;3708;42.632;23.378;2023-07-28T08:55:28;94420.00;;;27.49;29.94
7335;BME280;3708;42.632;23.378;2023-07-28T08:57:55;94423.53;;;27.91;29.73
7335;BME280;3708;42.632;23.378;2023-07-28T09:00:23;94414.03;;;28.31;29.25
7335;BME280;3708;42.632;23.378;2023-07-28T09:02:51;94412.50;;;28.59;28.42
7335;BME280;3708;42.632;23.378;2023-07-28T09:05:19;94407.13;;;28.59;27.57
7335;BME280;3708;42.632;23.378;2023-07-28T09:07:46;94406.59;;;28.35;27.94
7335;BME280;3708;42.632;23.378;2023-07-28T09:10:15;94403.88;;;28.64;27.64
7335;BME280;3708;42.632;23.378;2023-07-28T09:12:45;94388.69;;;28.83;27.70
7335;BME280;3708;42.632;23.378;2023-07-28T09:15:12;94385.00;;;29.02;28.04
7335;BME280;3708;42.632;23.378;2023-07-28T09:17:42;94392.50;;;28.03;28.84
7335;BME280;3708;42.632;23.378;2023-07-28T09:20:13;94387.56;;;28.01;29.24
7335;BME280;3708;42.632;23.378;2023-07-28T09:22:40;94380.56;;;27.87;28.75
7335;BME280;3708;42.632;23.378;2023-07-28T09:25:12;94375.00;;;28.23;28.58
7335;BME280;3708;42.632;23.378;2023-07-28T09:27:41;94382.00;;;28.75;27.64
7335;BME280;3708;42.632;23.378;2023-07-28T09:30:08;94367.88;;;27.88;28.39
7335;BME280;3708;42.632;23.378;2023-07-28T09:32:35;94369.75;;;28.04;28.28
7335;BME280;3708;42.632;23.378;2023-07-28T09:35:07;94359.13;;;28.66;27.41
7335;BME280;3708;42.632;23.378;2023-07-28T09:37:37;94344.88;;;29.04;26.34
7335;BME280;3708;42.632;23.378;2023-07-28T09:40:08;94350.09;;;28.98;27.01
7335;BME280;3708;42.632;23.378;2023-07-28T09:42:37;94348.03;;;28.90;27.23
7335;BME280;3708;42.632;23.378;2023-07-28T09:45:06;94345.75;;;29.26;26.04
7335;BME280;3708;42.632;23.378;2023-07-28T09:47:34;94346.44;;;29.52;26.06
7335;BME280;3708;42.632;23.378;2023-07-28T09:50:03;94339.28;;;29.58;26.39
7335;BME280;3708;42.632;23.378;2023-07-28T09:52:33;94327.66;;;29.82;25.95
7335;BME280;3708;42.632;23.378;2023-07-28T09:55:05;94335.19;;;29.87;26.04
7335;BME280;3708;42.632;23.378;2023-07-28T09:57:37;94333.03;;;29.48;25.92
7335;BME280;3708;42.632;23.378;2023-07-28T10:00:09;94338.66;;;28.69;26.96
7335;BME280;3708;42.632;23.378;2023-07-28T10:02:37;94339.50;;;29.16;26.76
7335;BME280;3708;42.632;23.378;2023-07-28T10:05:05;94336.31;;;29.43;26.50
7335;BME280;3708;42.632;23.378;2023-07-28T10:07:34;94331.66;;;28.59;26.79
7335;BME280;3708;42.632;23.378;2023-07-28T10:10:02;94330.41;;;28.35;27.56
7335;BME280;3708;42.632;23.378;2023-07-28T10:12:39;94328.41;;;28.64;27.21
7335;BME280;3708;42.632;23.378;2023-07-28T10:15:14;94337.31;;;28.99;26.45
7335;BME280;3708;42.632;23.378;2023-07-28T10:17:46;94323.78;;;28.90;26.46
7335;BME280;3708;42.632;23.378;2023-07-28T10:20:27;94327.91;;;29.41;26.34
7335;BME280;3708;42.632;23.378;2023-07-28T10:23:02;94325.56;;;29.30;26.71
7335;BME280;3708;42.632;23.378;2023-07-28T10:25:32;94326.47;;;29.71;26.13
7335;BME280;3708;42.632;23.378;2023-07-28T10:28:00;94318.78;;;30.03;25.74
7335;BME280;3708;42.632;23.378;2023-07-28T10:30:35;94321.56;;;30.43;25.68
7335;BME280;3708;42.632;23.378;2023-07-28T10:33:02;94313.22;;;30.50;25.51
7335;BME280;3708;42.632;23.378;2023-07-28T10:35:29;94310.88;;;31.10;24.38
7335;BME280;3708;42.632;23.378;2023-07-28T10:37:58;94304.72;;;31.19;24.28
7335;BME280;3708;42.632;23.378;2023-07-28T10:40:29;94309.13;;;30.85;24.57
7335;BME280;3708;42.632;23.378;2023-07-28T10:42:57;94304.28;;;31.38;23.83
7335;BME280;3708;42.632;23.378;2023-07-28T10:45:26;94297.72;;;31.76;22.93
7335;BME280;3708;42.632;23.378;2023-07-28T10:47:55;94306.59;;;31.94;23.32
7335;BME280;3708;42.632;23.378;2023-07-28T10:50:27;94296.19;;;31.93;23.45
7335;BME280;3708;42.632;23.378;2023-07-28T10:52:57;94288.81;;;31.75;23.32
7335;BME280;3708;42.632;23.378;2023-07-28T10:55:25;94288.53;;;32.00;23.27
7335;BME280;3708;42.632;23.378;2023-07-28T10:57:54;94278.59;;;32.48;22.49
7335;BME280;3708;42.632;23.378;2023-07-28T11:00:23;94274.75;;;33.05;22.38
7335;BME280;3708;42.632;23.378;2023-07-28T11:02:51;94268.22;;;33.36;22.12
7335;BME280;3708;42.632;23.378;2023-07-28T11:05:21;94263.94;;;33.20;22.05
7335;BME280;3708;42.632;23.378;2023-07-28T11:07:49;94264.72;;;33.35;22.11
7335;BME280;3708;42.632;23.378;2023-07-28T11:10:16;94264.34;;;33.28;22.17
7335;BME280;3708;42.632;23.378;2023-07-28T11:12:45;94262.22;;;33.70;21.55
7335;BME280;3708;42.632;23.378;2023-07-28T11:15:14;94261.25;;;33.58;21.74
7335;BME280;3708;42.632;23.378;2023-07-28T11:17:42;94271.75;;;32.20;21.93
7335;BME280;3708;42.632;23.378;2023-07-28T11:20:15;94264.28;;;31.97;21.96
7335;BME280;3708;42.632;23.378;2023-07-28T11:22:45;94258.50;;;32.64;21.61
7335;BME280;3708;42.632;23.378;2023-07-28T11:25:12;94247.19;;;32.65;21.26
7335;BME280;3708;42.632;23.378;2023-07-28T11:27:39;94247.28;;;33.13;20.88
7335;BME280;3708;42.632;23.378;2023-07-28T11:30:07;94237.66;;;33.02;21.35
7335;BME280;3708;42.632;23.378;2023-07-28T11:32:36;94238.78;;;33.34;20.84
7335;BME280;3708;42.632;23.378;2023-07-28T11:35:05;94230.19;;;33.74;20.85
7335;BME280;3708;42.632;23.378;2023-07-28T11:37:33;94230.56;;;33.96;20.98
7335;BME280;3708;42.632;23.378;2023-07-28T11:40:03;94227.72;;;33.91;21.15
7335;BME280;3708;42.632;23.378;2023-07-28T11:42:33;94230.53;;;33.52;21.38
7335;BME280;3708;42.632;23.378;2023-07-28T11:45:02;94223.25;;;34.17;20.31
7335;BME280;3708;42.632;23.378;2023-07-28T11:47:29;94221.75;;;33.57;20.91
7335;BME280;3708;42.632;23.378;2023-07-28T11:49:56;94216.88;;;34.69;20.09
7335;BME280;3708;42.632;23.378;2023-07-28T11:52:30;94211.75;;;35.52;19.05
7335;BME280;3708;42.632;23.378;2023-07-28T11:54:58;94218.69;;;36.04;19.41
7335;BME280;3708;42.632;23.378;2023-07-28T11:57:27;94222.66;;;35.52;19.78
7335;BME280;3708;42.632;23.378;2023-07-28T11:59:56;94222.16;;;35.33;19.10
7335;BME280;3708;42.632;23.378;2023-07-28T12:02:27;94225.66;;;35.54;19.02
7335;BME280;3708;42.632;23.378;2023-07-28T12:04:54;94215.28;;;36.09;18.43
7335;BME280;3708;42.632;23.378;2023-07-28T12:07:28;94220.13;;;36.25;18.00
7335;BME280;3708;42.632;23.378;2023-07-28T12:09:56;94212.75;;;36.73;18.65
7335;BME280;3708;42.632;23.378;2023-07-28T12:12:27;94206.13;;;36.43;18.89
7335;BME280;3708;42.632;23.378;2023-07-28T12:14:55;94205.59;;;36.76;17.91
7335;BME280;3708;42.632;23.378;2023-07-28T12:17:25;94214.41;;;36.97;18.71
7335;BME280;3708;42.632;23.378;2023-07-28T12:20:01;94204.31;;;36.71;18.13
7335;BME280;3708;42.632;23.378;2023-07-28T12:22:32;94205.13;;;35.58;17.98
7335;BME280;3708;42.632;23.378;2023-07-28T12:24:59;94205.38;;;35.14;18.76
7335;BME280;3708;42.632;23.378;2023-07-28T12:27:27;94191.31;;;34.81;18.75
7335;BME280;3708;42.632;23.378;2023-07-28T12:29:54;94193.63;;;34.19;19.09
7335;BME280;3708;42.632;23.378;2023-07-28T12:32:21;94189.13;;;32.95;19.70
7335;BME280;3708;42.632;23.378;2023-07-28T12:34:54;94175.16;;;32.73;20.15
7335;BME280;3708;42.632;23.378;2023-07-28T12:37:22;94192.63;;;33.72;19.38
7335;BME280;3708;42.632;23.378;2023-07-28T12:39:53;94200.47;;;33.56;19.76
7335;BME280;3708;42.632;23.378;2023-07-28T12:42:20;94178.81;;;33.08;20.07
7335;BME280;3708;42.632;23.378;2023-07-28T12:44:50;94178.91;;;34.25;19.86
7335;BME280;3708;42.632;23.378;2023-07-28T12:47:19;94170.97;;;34.77;20.24
7335;BME280;3708;42.632;23.378;2023-07-28T12:49:45;94177.38;;;35.34;18.99
7335;BME280;3708;42.632;23.378;2023-07-28T12:52:12;94183.56;;;34.74;19.43
7335;BME280;3708;42.632;23.378;2023-07-28T12:54:41;94175.38;;;34.05;20.07
7335;BME280;3708;42.632;23.378;2023-07-28T12:57:09;94173.91;;;35.34;19.37
7335;BME280;3708;42.632;23.378;2023-07-28T12:59:37;94179.47;;;36.27;18.29
7335;BME280;3708;42.632;23.378;2023-07-28T13:02:06;94169.09;;;36.37;18.46
7335;BME280;3708;42.632;23.378;2023-07-28T13:04:33;94177.22;;;36.62;18.08
7335;BME280;3708;42.632;23.378;2023-07-28T13:06:59;94170.81;;;36.71;18.57
7335;BME280;3708;42.632;23.378;2023-07-28T13:09:26;94168.81;;;35.01;19.20
7335;BME280;3708;42.632;23.378;2023-07-28T13:11:53;94164.81;;;34.76;19.44
7335;BME280;3708;42.632;23.378;2023-07-28T13:14:20;94160.09;;;33.78;20.81
7335;BME280;3708;42.632;23.378;2023-07-28T13:16:47;94152.59;;;33.88;20.68